Time;durP1;ratioP1;P1;durP2;ratioP2;P2;SDS_P1;SDS_P2;PMS_P1;PMS_P2;Temp;Humidity;BMP_temperature;BMP_pressure;BME280_temperature;BME280_humidity;BME280_pressure;Samples;Min_cycle;Max_cycle;Signal;HPM_P1;HPM_P2
2022/01/08 00:05:50;;;;;;;1.77;0.80;;;2.30;99.90;;;;;;20891319;28;20041;-45
2022/01/08 00:15:51;;;;;;;4.43;1.00;;;2.30;99.90;;;;;;20901046;28;20071;-45
2022/01/08 00:25:52;;;;;;;2.13;1.23;;;2.20;99.90;;;;;;20890066;28;20527;-45
2022/01/08 00:35:53;;;;;;;4.00;0.80;;;2.10;99.90;;;;;;20872174;28;20517;-45
2022/01/08 00:45:54;;;;;;;1.92;0.80;;;2.00;99.90;;;;;;20883284;28;20044;-45
2022/01/08 00:55:55;;;;;;;1.60;0.63;;;1.90;99.90;;;;;;20900950;28;20041;-45
2022/01/08 01:05:57;;;;;;;1.88;0.63;;;1.70;99.90;;;;;;20897770;28;20583;-45
2022/01/08 01:15:58;;;;;;;3.00;0.55;;;1.70;99.90;;;;;;20890785;28;20045;-45
2022/01/08 01:26:03;;;;;;;1.33;0.70;;;1.70;99.90;;;;;;20896372;28;20047;-45
2022/01/08 01:56:27;;;;;;;1.45;0.55;;;1.70;99.90;;;;;;20887885;28;20076;-45
2022/01/08 02:06:28;;;;;;;1.30;0.63;;;1.60;99.90;;;;;;20885683;28;20049;-45
2022/01/08 02:16:30;;;;;;;1.95;0.57;;;1.70;99.90;;;;;;20893356;28;20706;-45
2022/01/08 02:26:31;;;;;;;2.28;0.50;;;1.70;99.90;;;;;;20885836;28;20304;-45
2022/01/08 02:36:34;;;;;;;4.07;0.70;;;1.70;99.90;;;;;;20854859;28;20044;-45
2022/01/08 02:46:38;;;;;;;2.53;0.60;;;1.60;99.90;;;;;;20879442;28;20044;-45
2022/01/08 02:56:42;;;;;;;6.70;0.45;;;1.70;99.90;;;;;;20876492;28;20045;-45
2022/01/08 03:06:43;;;;;;;0.95;0.45;;;1.80;99.90;;;;;;20884078;28;20040;-45
2022/01/08 03:16:44;;;;;;;1.20;0.43;;;1.90;99.90;;;;;;20896016;28;20056;-45
2022/01/08 03:26:45;;;;;;;1.15;0.43;;;2.00;99.90;;;;;;20872927;28;20044;-45
2022/01/08 03:36:49;;;;;;;0.85;0.38;;;1.90;99.90;;;;;;20915683;28;20088;-45
2022/01/08 03:46:50;;;;;;;0.45;0.28;;;2.00;99.90;;;;;;20867471;28;20076;-45
2022/01/08 03:56:51;;;;;;;0.70;0.20;;;1.80;99.90;;;;;;20905605;28;20041;-45
2022/01/08 04:06:53;;;;;;;0.77;0.32;;;1.70;99.90;;;;;;20889208;28;20048;-45
2022/01/08 04:16:54;;;;;;;1.50;0.40;;;1.60;99.90;;;;;;20891337;28;20052;-45
2022/01/08 04:26:55;;;;;;;0.70;0.25;;;1.60;99.90;;;;;;20875008;28;20216;-45
2022/01/08 04:36:56;;;;;;;2.40;0.60;;;1.40;99.90;;;;;;20883798;28;20057;-45
2022/01/08 04:46:58;;;;;;;0.88;0.47;;;1.40;99.90;;;;;;20865560;28;20036;-45
2022/01/08 04:56:59;;;;;;;1.95;0.73;;;1.30;99.90;;;;;;20890984;28;20051;-45
2022/01/08 05:07:00;;;;;;;1.58;0.40;;;1.40;99.90;;;;;;20895086;28;20049;-45
2022/01/08 05:17:02;;;;;;;1.73;0.40;;;1.40;99.90;;;;;;20901230;28;20051;-45
2022/01/08 05:27:05;;;;;;;0.95;0.43;;;1.50;99.90;;;;;;20883660;28;20203;-45
2022/01/08 05:37:06;;;;;;;0.45;0.22;;;1.50;99.90;;;;;;20877552;28;20048;-45
2022/01/08 05:47:08;;;;;;;1.27;0.40;;;1.60;99.90;;;;;;20882314;28;20048;-45
2022/01/08 05:57:09;;;;;;;4.15;0.60;;;1.70;99.90;;;;;;20902927;28;20048;-45
2022/01/08 06:07:10;;;;;;;3.53;0.70;;;1.70;99.90;;;;;;20883564;28;20036;-45
2022/01/08 06:17:11;;;;;;;0.82;0.40;;;1.70;99.90;;;;;;20887653;28;20045;-45
2022/01/08 06:27:12;;;;;;;2.80;0.55;;;1.70;99.90;;;;;;20877269;28;20199;-45
2022/01/08 06:37:13;;;;;;;1.35;0.70;;;1.80;99.90;;;;;;20900457;28;20504;-45
2022/01/08 06:47:14;;;;;;;4.07;1.02;;;1.80;99.90;;;;;;20893373;28;20975;-45
2022/01/08 06:57:16;;;;;;;2.72;0.93;;;1.90;99.90;;;;;;20873668;28;20036;-45
2022/01/08 07:07:17;;;;;;;2.90;1.08;;;1.90;99.90;;;;;;20921017;28;20048;-45
2022/01/08 07:17:18;;;;;;;3.50;1.50;;;1.90;99.90;;;;;;20916628;28;20036;-45
2022/01/08 07:27:20;;;;;;;2.40;1.05;;;1.90;99.90;;;;;;20923445;28;20044;-45
2022/01/08 07:37:21;;;;;;;10.85;1.38;;;1.90;99.90;;;;;;20893236;28;20405;-45
2022/01/08 07:47:22;;;;;;;1.48;0.60;;;1.90;99.90;;;;;;20924499;28;20517;-45
2022/01/08 07:57:23;;;;;;;2.65;0.82;;;2.00;99.90;;;;;;20906291;28;20052;-45
2022/01/08 08:07:40;;;;;;;3.75;1.10;;;2.10;99.90;;;;;;20848331;28;20047;-45
2022/01/08 08:17:42;;;;;;;5.20;1.80;;;2.20;99.90;;;;;;20883062;28;20037;-45
2022/01/08 08:27:44;;;;;;;7.60;1.45;;;2.30;99.90;;;;;;20880712;28;20047;-45
2022/01/08 08:37:45;;;;;;;3.78;1.63;;;2.30;99.90;;;;;;20892378;28;20417;-45
2022/01/08 08:47:46;;;;;;;7.40;3.03;;;2.40;99.90;;;;;;20883389;28;20044;-45
2022/01/08 08:57:48;;;;;;;9.68;2.63;;;2.50;99.90;;;;;;20901129;28;20048;-45
2022/01/08 09:07:49;;;;;;;5.22;2.83;;;2.50;99.90;;;;;;20873541;28;20044;-45
2022/01/08 09:17:52;;;;;;;6.15;2.28;;;2.60;99.90;;;;;;20873944;28;20303;-45
2022/01/08 09:27:53;;;;;;;5.43;2.67;;;2.60;99.90;;;;;;20862738;28;20041;-45
2022/01/08 09:37:54;;;;;;;7.75;3.15;;;2.80;99.90;;;;;;20893795;28;20787;-44
2022/01/08 09:47:55;;;;;;;6.68;2.90;;;2.80;99.90;;;;;;20869045;28;20052;-45
2022/01/08 09:57:57;;;;;;;7.18;3.33;;;2.90;99.90;;;;;;20894502;28;20044;-45
2022/01/08 10:07:59;;;;;;;6.22;3.13;;;3.00;99.90;;;;;;20882521;28;20051;-44
2022/01/08 10:18:02;;;;;;;6.93;3.17;;;3.10;99.90;;;;;;20894634;28;20408;-45
2022/01/08 10:28:05;;;;;;;10.35;3.60;;;3.10;99.90;;;;;;20888906;28;20045;-45
2022/01/08 10:38:08;;;;;;;6.13;2.78;;;3.10;99.90;;;;;;20882691;28;20792;-45
2022/01/08 10:48:09;;;;;;;5.72;2.40;;;3.20;99.90;;;;;;20880561;28;20045;-45
2022/01/08 10:58:12;;;;;;;11.73;4.38;;;3.30;99.90;;;;;;20879933;28;20045;-45
2022/01/08 11:08:14;;;;;;;7.18;3.35;;;3.50;99.90;;;;;;20877669;28;20616;-45
2022/01/08 11:18:19;;;;;;;6.50;3.60;;;3.40;99.90;;;;;;20879459;28;20051;-45
2022/01/08 11:28:24;;;;;;;15.80;3.80;;;3.50;99.90;;;;;;20883224;28;20448;-45
2022/01/08 11:38:27;;;;;;;10.23;3.50;;;3.50;99.90;;;;;;20885591;28;20524;-45
2022/01/08 11:48:42;;;;;;;10.10;2.63;;;3.60;99.90;;;;;;20882204;28;20108;-45
2022/01/08 11:58:43;;;;;;;10.40;2.05;;;3.60;99.90;;;;;;20920948;28;20400;-45
2022/01/08 12:09:21;;;;;;;12.13;2.28;;;3.70;99.90;;;;;;20925645;28;20043;-45
2022/01/08 12:19:39;;;;;;;11.00;1.30;;;3.70;99.90;;;;;;20918101;28;20128;-45
2022/01/08 12:29:42;;;;;;;5.13;1.75;;;3.90;99.90;;;;;;20901765;28;20052;-45
2022/01/08 12:39:43;;;;;;;5.38;1.40;;;3.90;99.90;;;;;;20901129;28;20056;-45
2022/01/08 12:50:16;;;;;;;7.45;2.25;;;3.90;99.90;;;;;;20884501;28;20499;-45
2022/01/08 13:00:17;;;;;;;4.55;1.52;;;3.90;99.90;;;;;;20890829;28;20052;-44
2022/01/08 13:10:19;;;;;;;4.00;1.02;;;3.90;99.90;;;;;;20842414;28;20040;-44
2022/01/08 13:20:21;;;;;;;2.55;1.10;;;4.00;99.90;;;;;;20897569;28;20052;-44
2022/01/08 13:30:25;;;;;;;3.38;1.48;;;3.90;99.90;;;;;;20876646;28;20033;-44
2022/01/08 13:40:27;;;;;;;6.22;1.15;;;3.90;99.90;;;;;;20887807;28;20041;-45
2022/01/08 13:50:36;;;;;;;3.40;1.15;;;3.90;99.90;;;;;;20892832;28;20378;-45
2022/01/08 14:00:44;;;;;;;4.82;1.38;;;3.80;99.90;;;;;;20884925;28;20056;-45
2022/01/08 14:10:49;;;;;;;3.60;0.90;;;3.90;99.90;;;;;;20871342;28;20312;-45
2022/01/08 14:20:51;;;;;;;2.50;0.98;;;3.90;99.90;;;;;;20896812;28;20045;-44
2022/01/08 14:31:12;;;;;;;2.20;1.15;;;4.00;99.90;;;;;;20891018;28;20076;-45
2022/01/08 14:41:13;;;;;;;2.55;0.88;;;4.10;99.90;;;;;;20881015;28;20051;-45
2022/01/08 14:51:17;;;;;;;2.45;1.08;;;4.10;99.90;;;;;;20881643;28;20549;-44
2022/01/08 15:01:18;;;;;;;3.20;1.30;;;4.20;99.90;;;;;;20842980;28;20053;-45
2022/01/08 15:11:20;;;;;;;2.03;0.80;;;4.30;99.90;;;;;;20912019;28;20411;-45
2022/01/08 15:21:23;;;;;;;4.15;1.13;;;4.30;99.90;;;;;;20879155;28;20040;-45
2022/01/08 15:31:24;;;;;;;5.43;0.88;;;4.30;99.90;;;;;;20930446;28;20068;-45
2022/01/08 15:41:26;;;;;;;2.92;1.13;;;4.40;99.90;;;;;;20929936;28;20055;-45
2022/01/08 15:51:27;;;;;;;3.15;0.95;;;4.40;99.90;;;;;;20922826;28;20035;-45
2022/01/08 16:01:28;;;;;;;4.75;1.23;;;4.40;99.90;;;;;;20926460;28;20059;-45
2022/01/08 16:11:30;;;;;;;3.42;1.30;;;4.60;99.90;;;;;;20922972;28;20044;-44
2022/01/08 16:21:34;;;;;;;1.60;0.80;;;4.70;99.90;;;;;;20921192;28;21232;-45
2022/01/08 16:31:35;;;;;;;2.90;1.35;;;4.70;99.90;;;;;;20924226;28;20049;-45
2022/01/08 16:41:37;;;;;;;4.43;1.67;;;4.80;99.90;;;;;;20875932;28;20442;-45
2022/01/08 16:51:40;;;;;;;3.03;1.23;;;4.90;99.90;;;;;;20906123;28;20736;-45
2022/01/08 17:01:41;;;;;;;4.22;1.67;;;5.00;99.90;;;;;;20908091;28;20045;-46
2022/01/08 17:11:42;;;;;;;4.10;1.17;;;5.10;99.90;;;;;;20924721;28;20532;-45
2022/01/08 17:21:44;;;;;;;4.03;1.38;;;5.20;99.90;;;;;;20922089;28;20997;-44
2022/01/08 17:31:45;;;;;;;5.32;1.95;;;5.40;99.90;;;;;;20930183;28;20361;-45
2022/01/08 17:41:46;;;;;;;4.68;1.45;;;5.40;99.90;;;;;;20928830;28;20053;-45
2022/01/08 17:51:48;;;;;;;5.55;1.48;;;5.50;99.90;;;;;;20898321;28;20072;-45
2022/01/08 18:01:49;;;;;;;3.60;1.90;;;5.60;99.90;;;;;;20896939;28;20040;-45
2022/01/08 18:11:50;;;;;;;4.18;1.83;;;5.70;99.90;;;;;;20898507;28;20053;-46
2022/01/08 18:21:52;;;;;;;3.90;1.63;;;5.80;99.90;;;;;;20898833;28;20088;-46
2022/01/08 18:31:53;;;;;;;4.57;1.67;;;5.80;99.90;;;;;;20901095;28;20447;-45
2022/01/08 18:41:54;;;;;;;4.55;1.42;;;5.90;99.90;;;;;;20897948;28;20044;-45
2022/01/08 18:51:55;;;;;;;3.25;1.60;;;6.00;99.90;;;;;;20896514;28;20047;-45
2022/01/08 19:01:56;;;;;;;3.00;1.55;;;6.10;99.90;;;;;;20900314;28;20056;-47
2022/01/08 19:11:58;;;;;;;4.72;1.95;;;6.10;99.90;;;;;;20931395;28;20403;-46
2022/01/08 19:22:00;;;;;;;3.47;1.55;;;6.10;99.90;;;;;;20929040;28;20048;-47
2022/01/08 19:32:01;;;;;;;6.65;1.90;;;6.20;99.90;;;;;;20923807;28;20427;-47
2022/01/08 19:42:05;;;;;;;7.68;1.50;;;6.20;99.90;;;;;;20918720;28;20048;-46
2022/01/08 19:52:09;;;;;;;3.08;1.58;;;6.20;99.90;;;;;;20922889;28;20083;-46
2022/01/08 20:02:11;;;;;;;4.50;2.20;;;6.20;99.90;;;;;;20929851;28;20048;-46
2022/01/08 20:12:12;;;;;;;3.38;1.63;;;6.30;99.90;;;;;;20905964;28;20048;-46
2022/01/08 20:22:15;;;;;;;3.67;1.38;;;6.20;99.90;;;;;;20935193;28;20315;-45
2022/01/08 20:32:16;;;;;;;3.47;1.60;;;6.30;99.90;;;;;;20937141;28;20552;-46
2022/01/08 20:42:17;;;;;;;2.67;1.27;;;6.30;99.90;;;;;;20954303;28;20048;-46
2022/01/08 20:52:19;;;;;;;3.35;1.35;;;6.30;99.90;;;;;;20950985;28;20438;-46
2022/01/08 21:02:21;;;;;;;2.80;1.50;;;6.30;99.90;;;;;;20943318;28;21214;-47
2022/01/08 21:12:22;;;;;;;3.10;1.35;;;6.30;99.90;;;;;;20932803;28;20041;-47
2022/01/08 21:22:23;;;;;;;3.65;1.35;;;6.30;99.90;;;;;;20932982;28;20411;-47
2022/01/08 21:32:25;;;;;;;3.70;1.38;;;6.20;99.90;;;;;;20937972;28;20028;-47
2022/01/08 21:42:26;;;;;;;5.40;1.90;;;6.30;99.90;;;;;;20959914;28;20049;-47
2022/01/08 21:52:27;;;;;;;4.20;1.25;;;6.30;99.90;;;;;;20922591;28;20044;-47
2022/01/08 22:02:28;;;;;;;4.07;1.65;;;6.30;99.90;;;;;;20914675;28;20040;-47
2022/01/08 22:12:29;;;;;;;3.22;1.25;;;6.20;99.90;;;;;;20927169;28;20055;-47
2022/01/08 22:22:30;;;;;;;4.00;1.40;;;6.20;99.90;;;;;;20934607;28;20044;-47
2022/01/08 22:32:32;;;;;;;5.25;1.65;;;6.20;99.90;;;;;;20922145;28;20032;-47
2022/01/08 22:42:33;;;;;;;6.97;2.13;;;6.20;99.90;;;;;;20931279;28;20516;-47
2022/01/08 22:52:34;;;;;;;5.47;2.50;;;6.30;99.90;;;;;;20923007;28;20040;-48
2022/01/08 23:02:35;;;;;;;4.65;2.10;;;6.20;99.90;;;;;;20929866;28;20036;-48
2022/01/08 23:12:39;;;;;;;4.22;1.83;;;6.20;99.90;;;;;;20926607;28;20056;-47
2022/01/08 23:22:40;;;;;;;6.07;2.10;;;6.30;99.90;;;;;;20930181;28;20230;-47
2022/01/08 23:32:41;;;;;;;7.35;2.72;;;6.30;99.90;;;;;;20928710;28;20055;-47
2022/01/08 23:42:43;;;;;;;2.80;0.80;;;6.30;99.90;;;;;;20925705;28;20036;-48
2022/01/08 23:52:48;;;;;;;4.38;0.65;;;6.50;99.90;;;;;;20935033;28;20033;-47
